createdAt,value
2023-05-11T00:00:04.740Z,3.40
2023-05-11T00:02:32.188Z,3.55
2023-05-11T00:04:59.573Z,3.40
2023-05-11T00:07:27.025Z,4.78
2023-05-11T00:09:54.566Z,3.88
2023-05-11T00:12:21.869Z,4.07
2023-05-11T00:14:49.203Z,3.50
2023-05-11T00:17:16.638Z,3.33
2023-05-11T00:19:43.982Z,2.97
2023-05-11T00:22:11.320Z,3.08
2023-05-11T00:24:39.335Z,3.40
2023-05-11T00:27:06.816Z,4.32
2023-05-11T00:29:34.147Z,4.78
2023-05-11T00:32:01.489Z,5.05
2023-05-11T00:34:29.029Z,3.70
2023-05-11T00:36:56.665Z,4.72
2023-05-11T00:39:24.101Z,2.75
2023-05-11T00:41:51.424Z,4.60
2023-05-11T00:44:19.860Z,6.53
2023-05-11T00:46:47.746Z,4.28
2023-05-11T00:49:24.557Z,3.13
2023-05-11T00:51:51.969Z,2.85
2023-05-11T00:54:20.009Z,4.25
2023-05-11T00:56:48.493Z,4.68
2023-05-11T00:59:16.183Z,5.20
2023-05-11T01:01:43.658Z,4.32
2023-05-11T01:04:11.382Z,4.53
2023-05-11T01:07:15.586Z,4.20
2023-05-11T01:09:57.998Z,4.40
2023-05-11T01:12:37.155Z,3.65
2023-05-11T01:15:11.804Z,4.80
2023-05-11T01:18:04.208Z,4.97
2023-05-11T01:20:31.822Z,4.35
2023-05-11T01:23:08.047Z,3.55
2023-05-11T01:26:09.102Z,4.30
2023-05-11T01:28:45.514Z,5.57
2023-05-11T01:31:15.458Z,5.63
2023-05-11T01:33:54.041Z,5.75
2023-05-11T01:36:23.795Z,5.20
2023-05-11T01:38:54.448Z,5.05
2023-05-11T01:41:23.510Z,5.55
2023-05-11T01:43:58.308Z,4.32
2023-05-11T01:46:33.554Z,4.18
2023-05-11T01:49:05.647Z,5.25
2023-05-11T01:51:38.669Z,5.75
2023-05-11T01:54:11.431Z,4.78
2023-05-11T01:56:40.883Z,5.53
2023-05-11T01:59:09.042Z,4.15
2023-05-11T02:01:38.206Z,4.00
2023-05-11T02:04:07.491Z,4.18
2023-05-11T02:06:38.146Z,4.40
2023-05-11T02:09:07.411Z,4.05
2023-05-11T02:11:37.533Z,4.75
2023-05-11T02:14:06.592Z,4.70
2023-05-11T02:16:35.415Z,4.95
2023-05-11T02:19:04.039Z,5.28
2023-05-11T02:21:33.057Z,6.65
2023-05-11T02:24:05.050Z,5.20
2023-05-11T02:26:32.427Z,4.50
2023-05-11T02:29:00.171Z,4.55
2023-05-11T02:31:35.949Z,3.85
2023-05-11T02:34:14.970Z,3.65
2023-05-11T02:36:43.560Z,5.00
2023-05-11T02:39:15.457Z,4.45
2023-05-11T02:41:44.508Z,5.35
2023-05-11T02:44:16.268Z,5.07
2023-05-11T02:46:47.572Z,4.23
2023-05-11T02:49:18.481Z,4.35
2023-05-11T02:51:47.949Z,3.42
2023-05-11T02:54:17.482Z,4.78
2023-05-11T02:56:46.201Z,6.10
2023-05-11T02:59:14.333Z,4.13
2023-05-11T03:01:41.958Z,4.35
2023-05-11T03:04:09.467Z,3.80
2023-05-11T03:06:37.554Z,5.03
2023-05-11T03:09:07.241Z,3.80
2023-05-11T03:11:37.446Z,5.73
2023-05-11T03:14:05.145Z,4.07
2023-05-11T03:16:33.867Z,5.15
2023-05-11T03:19:02.973Z,3.45
2023-05-11T03:21:30.583Z,3.90
2023-05-11T03:23:58.753Z,5.10
2023-05-11T03:26:30.443Z,4.03
2023-05-11T03:29:00.264Z,4.35
2023-05-11T03:31:27.977Z,3.72
2023-05-11T03:33:55.794Z,5.72
2023-05-11T03:36:24.276Z,3.78
2023-05-11T03:38:53.643Z,2.92
2023-05-11T03:41:21.605Z,4.60
2023-05-11T03:43:51.896Z,4.72
2023-05-11T03:46:23.220Z,5.25
2023-05-11T03:48:51.500Z,3.70
2023-05-11T03:51:19.591Z,3.90
2023-05-11T03:53:47.578Z,4.10
2023-05-11T03:56:17.894Z,4.88
2023-05-11T03:58:45.798Z,3.85
2023-05-11T04:01:13.993Z,6.20
2023-05-11T04:03:52.138Z,5.15
2023-05-11T04:06:20.489Z,4.20
2023-05-11T04:08:47.862Z,4.05
2023-05-11T04:11:15.292Z,4.30
2023-05-11T04:13:42.720Z,3.08
2023-05-11T04:16:10.235Z,4.53
2023-05-11T04:18:37.632Z,4.93
2023-05-11T04:21:06.270Z,3.35
2023-05-11T04:23:33.696Z,3.65
2023-05-11T04:26:01.148Z,5.00
2023-05-11T04:28:29.477Z,5.18
2023-05-11T04:30:57.951Z,4.28
2023-05-11T04:33:25.586Z,4.95
2023-05-11T04:35:56.497Z,4.32
2023-05-11T04:38:24.034Z,5.13
2023-05-11T04:40:51.375Z,6.57
2023-05-11T04:43:18.994Z,3.90
2023-05-11T04:45:50.208Z,6.68
2023-05-11T04:48:20.567Z,4.28
2023-05-11T04:50:48.370Z,3.70
2023-05-11T04:53:15.869Z,3.97
2023-05-11T04:55:43.281Z,4.70
2023-05-11T04:58:10.812Z,3.58
2023-05-11T05:00:38.319Z,4.93
2023-05-11T05:03:05.676Z,4.05
2023-05-11T05:05:33.076Z,6.03
2023-05-11T05:08:00.627Z,3.72
2023-05-11T05:10:27.995Z,4.50
2023-05-11T05:12:55.427Z,3.40
2023-05-11T05:15:22.960Z,4.80
2023-05-11T05:17:50.388Z,3.33
2023-05-11T05:20:17.997Z,4.47
2023-05-11T05:22:45.572Z,5.57
2023-05-11T05:25:12.990Z,3.63
2023-05-11T05:27:40.493Z,4.07
2023-05-11T05:30:08.328Z,4.80
2023-05-11T05:32:35.738Z,3.85
2023-05-11T05:35:04.118Z,4.07
2023-05-11T05:37:31.423Z,3.65
2023-05-11T05:39:58.787Z,2.97
2023-05-11T05:42:26.122Z,3.50
2023-05-11T05:44:53.470Z,6.28
2023-05-11T05:47:20.892Z,21.05
2023-05-11T05:49:48.197Z,21.58
2023-05-11T05:52:16.022Z,16.50
2023-05-11T05:54:43.431Z,23.52
2023-05-11T05:57:10.762Z,10.40
2023-05-11T05:59:38.181Z,8.02
2023-05-11T06:02:06.479Z,9.20
2023-05-11T06:04:33.819Z,8.93
2023-05-11T06:07:01.182Z,10.18
2023-05-11T06:09:28.659Z,10.50
2023-05-11T06:11:56.124Z,10.85
2023-05-11T06:14:23.530Z,5.88
2023-05-11T06:16:50.958Z,7.57
2023-05-11T06:19:18.255Z,7.18
2023-05-11T06:21:46.174Z,7.38
2023-05-11T06:24:13.466Z,4.95
2023-05-11T06:26:43.834Z,6.82
2023-05-11T06:29:11.211Z,11.30
2023-05-11T06:31:38.621Z,6.07
2023-05-11T06:34:06.022Z,8.40
2023-05-11T06:36:33.383Z,5.03
2023-05-11T06:39:00.681Z,3.42
2023-05-11T06:41:28.088Z,5.88
2023-05-11T06:43:55.529Z,6.65
2023-05-11T06:46:22.994Z,4.03
2023-05-11T06:48:50.388Z,5.28
2023-05-11T06:51:17.810Z,6.43
2023-05-11T06:53:45.568Z,3.78
2023-05-11T06:56:13.184Z,3.90
2023-05-11T06:58:40.621Z,3.25
2023-05-11T07:01:08.153Z,3.33
2023-05-11T07:03:35.796Z,3.05
2023-05-11T07:06:03.608Z,3.00
2023-05-11T07:08:31.008Z,2.70
2023-05-11T07:10:58.455Z,3.33
2023-05-11T07:13:25.878Z,3.13
2023-05-11T07:15:56.633Z,2.88
2023-05-11T07:18:24.953Z,3.05
2023-05-11T07:20:52.327Z,4.72
2023-05-11T07:23:19.671Z,4.57
2023-05-11T07:25:47.002Z,16.25
2023-05-11T07:28:14.341Z,13.02
2023-05-11T07:30:41.688Z,4.72
2023-05-11T07:33:09.096Z,3.63
2023-05-11T07:35:36.690Z,3.40
2023-05-11T07:38:05.257Z,4.65
2023-05-11T07:40:32.662Z,3.47
2023-05-11T07:43:00.239Z,4.60
2023-05-11T07:45:27.747Z,3.80
2023-05-11T07:47:55.155Z,2.65
2023-05-11T07:50:24.327Z,3.70
2023-05-11T07:52:52.340Z,2.58
2023-05-11T07:55:25.089Z,4.30
2023-05-11T07:57:54.229Z,1.95
2023-05-11T08:00:21.988Z,4.05
2023-05-11T08:02:49.503Z,4.28
2023-05-11T08:05:18.861Z,4.90
2023-05-11T08:07:47.353Z,7.15
2023-05-11T08:10:14.787Z,5.80
2023-05-11T08:12:42.114Z,7.18
2023-05-11T08:15:09.965Z,14.35
2023-05-11T08:17:37.575Z,17.25
2023-05-11T08:20:06.755Z,9.75
2023-05-11T08:22:34.334Z,13.13
2023-05-11T08:25:04.143Z,4.90
2023-05-11T08:27:31.421Z,3.28
2023-05-11T08:30:02.921Z,5.40
2023-05-11T08:32:30.521Z,4.82
2023-05-11T08:34:58.569Z,4.18
2023-05-11T08:37:26.140Z,4.03
2023-05-11T08:39:53.490Z,3.95
2023-05-11T08:42:23.684Z,12.90
2023-05-11T08:44:52.902Z,9.00
2023-05-11T08:47:23.553Z,10.82
2023-05-11T08:49:55.246Z,6.82
2023-05-11T08:52:22.673Z,6.03
2023-05-11T08:54:50.058Z,6.43
2023-05-11T08:57:19.190Z,6.13
2023-05-11T08:59:47.754Z,19.83
2023-05-11T09:02:18.791Z,13.38
2023-05-11T09:04:48.965Z,7.85
2023-05-11T09:07:18.037Z,23.05
2023-05-11T09:09:47.537Z,13.50
2023-05-11T09:12:16.022Z,7.53
2023-05-11T09:14:44.030Z,8.68
2023-05-11T09:17:11.763Z,11.00
2023-05-11T09:19:59.389Z,4.88
2023-05-11T09:22:29.415Z,23.15
2023-05-11T09:24:59.222Z,26.45
2023-05-11T09:27:26.748Z,17.00
2023-05-11T09:29:55.029Z,15.50
2023-05-11T09:32:22.484Z,5.18
2023-05-11T09:34:50.319Z,6.30
2023-05-11T09:37:19.526Z,4.10
2023-05-11T09:40:14.112Z,5.50
2023-05-11T09:42:34.337Z,6.28
2023-05-11T09:45:04.193Z,13.90
2023-05-11T09:47:40.910Z,8.35
2023-05-11T09:50:18.878Z,7.57
2023-05-11T09:52:53.570Z,6.97
2023-05-11T09:55:21.007Z,16.77
2023-05-11T09:57:55.425Z,6.00
2023-05-11T10:00:25.205Z,10.18
2023-05-11T10:03:05.986Z,4.13
2023-05-11T10:05:35.777Z,2.83
2023-05-11T10:08:05.024Z,5.88
2023-05-11T10:10:34.429Z,3.53
2023-05-11T10:13:03.489Z,5.82
2023-05-11T10:15:35.319Z,15.27
2023-05-11T10:18:02.833Z,20.00
2023-05-11T10:20:30.273Z,12.25
2023-05-11T10:22:57.591Z,15.82
2023-05-11T10:25:26.628Z,10.23
2023-05-11T10:27:54.993Z,10.27
2023-05-11T10:30:22.591Z,21.70
2023-05-11T10:32:51.532Z,18.20
2023-05-11T10:35:19.563Z,7.07
2023-05-11T10:37:47.926Z,6.68
2023-05-11T10:40:15.698Z,5.75
2023-05-11T10:43:07.350Z,6.22
2023-05-11T10:45:52.352Z,7.53
2023-05-11T10:48:47.578Z,12.63
2023-05-11T10:51:35.044Z,26.65
2023-05-11T10:54:37.296Z,14.45
2023-05-11T10:57:31.552Z,34.35
2023-05-11T11:00:35.865Z,29.88
2023-05-11T11:03:12.413Z,24.92
2023-05-11T11:05:40.630Z,15.48
2023-05-11T11:08:09.492Z,15.30
2023-05-11T11:10:45.495Z,37.17
2023-05-11T11:13:17.324Z,19.08
2023-05-11T11:15:54.328Z,10.88
2023-05-11T11:18:22.991Z,14.32
2023-05-11T11:20:54.990Z,14.95
2023-05-11T11:23:41.382Z,21.52
2023-05-11T11:26:10.398Z,29.52
2023-05-11T11:29:02.005Z,19.95
2023-05-11T11:31:31.730Z,17.25
2023-05-11T11:34:18.824Z,18.95
2023-05-11T11:36:58.795Z,8.05
2023-05-11T11:39:27.041Z,18.30
2023-05-11T11:42:04.622Z,24.55
2023-05-11T11:44:32.643Z,10.93
2023-05-11T11:47:17.008Z,7.80
2023-05-11T11:49:54.987Z,2.25
2023-05-11T11:52:31.244Z,7.20
2023-05-11T11:55:00.085Z,4.13
2023-05-11T11:57:36.577Z,5.72
2023-05-11T12:00:11.906Z,5.10
2023-05-11T12:02:44.159Z,5.18
2023-05-11T12:05:18.776Z,6.07
2023-05-11T12:07:49.134Z,5.40
2023-05-11T12:10:18.875Z,6.78
2023-05-11T12:12:48.321Z,6.38
2023-05-11T12:15:28.043Z,6.63
2023-05-11T12:17:56.291Z,5.90
2023-05-11T12:20:24.189Z,14.68
2023-05-11T12:22:51.812Z,3.08
2023-05-11T12:25:20.896Z,7.57
2023-05-11T12:28:01.229Z,5.13
2023-05-11T12:30:33.403Z,4.05
2023-05-11T12:33:04.369Z,3.80
2023-05-11T12:35:33.898Z,5.97
2023-05-11T12:38:02.819Z,6.47
2023-05-11T12:40:31.643Z,3.03
2023-05-11T12:43:00.566Z,4.70
2023-05-11T12:45:29.391Z,4.30
2023-05-11T12:47:58.589Z,8.65
2023-05-11T12:50:26.111Z,5.63
2023-05-11T12:52:53.572Z,7.05
2023-05-11T12:55:31.048Z,4.53
2023-05-11T12:58:10.810Z,4.95
2023-05-11T13:00:49.934Z,3.53
2023-05-11T13:03:23.007Z,7.78
2023-05-11T13:05:50.944Z,3.63
2023-05-11T13:08:20.055Z,6.00
2023-05-11T13:10:48.239Z,7.03
2023-05-11T13:13:30.967Z,4.78
2023-05-11T13:15:59.016Z,13.60
2023-05-11T13:18:26.491Z,6.65
2023-05-11T13:21:09.579Z,2.25
2023-05-11T13:23:38.028Z,4.78
2023-05-11T13:26:05.476Z,2.75
2023-05-11T13:28:34.878Z,6.47
2023-05-11T13:31:02.531Z,4.68
2023-05-11T13:33:30.045Z,3.53
2023-05-11T13:35:57.502Z,4.78
2023-05-11T13:38:24.835Z,4.05
2023-05-11T13:40:52.181Z,3.05
2023-05-11T13:43:19.617Z,4.05
2023-05-11T13:45:46.992Z,4.38
2023-05-11T13:48:14.410Z,5.65
2023-05-11T13:50:41.995Z,9.15
2023-05-11T13:53:10.637Z,5.03
2023-05-11T13:55:39.348Z,3.85
2023-05-11T13:58:06.810Z,2.22
2023-05-11T14:00:35.113Z,1.48
2023-05-11T14:03:02.822Z,2.47
2023-05-11T14:05:31.349Z,3.25
2023-05-11T14:07:58.749Z,2.63
2023-05-11T14:10:26.048Z,3.00
2023-05-11T14:12:53.436Z,4.03
2023-05-11T14:15:21.072Z,3.42
2023-05-11T14:17:48.887Z,2.95
2023-05-11T14:20:16.521Z,2.03
2023-05-11T14:22:44.402Z,2.38
2023-05-11T14:25:11.890Z,2.92
2023-05-11T14:27:39.316Z,3.08
2023-05-11T14:30:07.813Z,2.80
2023-05-11T14:32:35.212Z,2.90
2023-05-11T14:35:02.562Z,3.97
2023-05-11T14:37:30.591Z,2.58
2023-05-11T14:39:58.005Z,3.53
2023-05-11T14:42:25.420Z,3.45
2023-05-11T14:44:52.725Z,2.38
2023-05-11T14:47:20.172Z,3.33
2023-05-11T14:49:47.567Z,2.70
2023-05-11T14:52:14.931Z,4.38
2023-05-11T14:54:42.693Z,1.70
2023-05-11T14:57:10.047Z,4.97
2023-05-11T14:59:47.688Z,1.92
2023-05-11T15:02:26.043Z,4.57
2023-05-11T15:04:53.647Z,3.67
2023-05-11T15:07:21.297Z,3.90
2023-05-11T15:09:49.740Z,4.38
2023-05-11T15:12:17.180Z,4.47
2023-05-11T15:14:46.025Z,5.40
2023-05-11T15:17:13.456Z,4.75
2023-05-11T15:19:40.833Z,3.38
2023-05-11T15:22:08.247Z,3.67
2023-05-11T15:24:35.696Z,3.75
2023-05-11T15:27:03.173Z,3.25
2023-05-11T15:29:30.599Z,3.15
2023-05-11T15:31:57.962Z,5.35
2023-05-11T15:34:25.344Z,3.72
2023-05-11T15:36:52.679Z,3.63
2023-05-11T15:39:20.089Z,2.92
2023-05-11T15:41:47.464Z,7.70
2023-05-11T15:44:14.785Z,4.72
2023-05-11T15:46:42.248Z,4.47
2023-05-11T15:49:09.629Z,3.00
2023-05-11T15:51:37.119Z,5.18
2023-05-11T15:54:04.628Z,3.97
2023-05-11T15:56:34.973Z,3.25
2023-05-11T15:59:02.303Z,2.22
2023-05-11T16:01:29.693Z,2.47
2023-05-11T16:03:57.228Z,5.20
2023-05-11T16:06:24.638Z,3.58
2023-05-11T16:08:53.187Z,3.65
2023-05-11T16:11:21.467Z,1.33
2023-05-11T16:13:48.846Z,2.72
2023-05-11T16:16:16.214Z,3.58
2023-05-11T16:18:46.464Z,3.22
2023-05-11T16:21:14.764Z,1.95
2023-05-11T16:23:42.570Z,3.33
2023-05-11T16:26:10.003Z,4.97
2023-05-11T16:28:37.348Z,4.80
2023-05-11T16:31:04.825Z,2.45
2023-05-11T16:33:32.374Z,2.80
2023-05-11T16:35:59.796Z,3.08
2023-05-11T16:38:27.154Z,2.90
2023-05-11T16:40:55.357Z,3.10
2023-05-11T16:43:22.750Z,4.60
2023-05-11T16:45:50.160Z,3.00
2023-05-11T16:48:17.595Z,2.67
2023-05-11T16:50:45.659Z,1.70
2023-05-11T16:53:13.748Z,3.45
2023-05-11T16:55:41.842Z,3.75
2023-05-11T16:58:09.860Z,4.05
2023-05-11T17:00:37.331Z,2.75
2023-05-11T17:03:04.871Z,3.53
2023-05-11T17:05:32.241Z,2.88
2023-05-11T17:07:59.806Z,3.42
2023-05-11T17:10:27.303Z,3.50
2023-05-11T17:12:56.366Z,3.33
2023-05-11T17:15:25.015Z,3.45
2023-05-11T17:17:53.280Z,4.45
2023-05-11T17:20:21.388Z,2.33
2023-05-11T17:22:49.084Z,2.55
2023-05-11T17:25:16.457Z,3.85
2023-05-11T17:27:43.897Z,1.83
2023-05-11T17:30:11.746Z,2.47
2023-05-11T17:32:39.464Z,2.13
2023-05-11T17:35:08.148Z,2.63
2023-05-11T17:37:35.728Z,2.75
2023-05-11T17:40:07.399Z,4.28
2023-05-11T17:42:34.934Z,2.50
2023-05-11T17:45:02.354Z,1.63
2023-05-11T17:47:30.198Z,1.90
2023-05-11T17:49:57.693Z,2.20
2023-05-11T17:52:26.030Z,4.15
2023-05-11T17:54:53.534Z,6.30
2023-05-11T17:57:23.394Z,7.57
2023-05-11T17:59:50.925Z,3.65
2023-05-11T18:02:19.075Z,3.72
2023-05-11T18:04:47.311Z,2.40
2023-05-11T18:07:14.656Z,3.33
2023-05-11T18:09:42.100Z,3.83
2023-05-11T18:12:09.923Z,2.58
2023-05-11T18:14:37.539Z,2.22
2023-05-11T18:17:05.253Z,3.63
2023-05-11T18:19:32.600Z,2.30
2023-05-11T18:22:00.670Z,3.20
2023-05-11T18:24:27.990Z,3.15
2023-05-11T18:26:55.299Z,2.85
2023-05-11T18:29:23.075Z,2.40
2023-05-11T18:31:50.906Z,2.25
2023-05-11T18:34:18.336Z,2.63
2023-05-11T18:36:45.771Z,3.22
2023-05-11T18:39:14.245Z,2.53
2023-05-11T18:41:41.530Z,4.55
2023-05-11T18:44:09.407Z,2.65
2023-05-11T18:46:37.156Z,1.52
2023-05-11T18:49:04.481Z,3.22
2023-05-11T18:51:31.818Z,2.80
2023-05-11T18:53:59.214Z,3.25
2023-05-11T18:56:26.527Z,1.88
2023-05-11T18:58:53.926Z,2.78
2023-05-11T19:01:24.143Z,2.28
2023-05-11T19:03:53.281Z,2.10
2023-05-11T19:06:20.600Z,3.42
2023-05-11T19:08:49.349Z,2.03
2023-05-11T19:11:17.292Z,3.20
2023-05-11T19:13:44.891Z,2.78
2023-05-11T19:16:12.262Z,1.95
2023-05-11T19:18:40.108Z,2.10
2023-05-11T19:21:07.662Z,1.35
2023-05-11T19:23:36.250Z,2.22
2023-05-11T19:26:03.595Z,2.58
2023-05-11T19:28:31.846Z,1.75
2023-05-11T19:31:06.360Z,2.67
2023-05-11T19:33:34.114Z,4.07
2023-05-11T19:36:01.606Z,2.47
2023-05-11T19:38:29.023Z,2.20
2023-05-11T19:40:56.384Z,1.98
2023-05-11T19:43:24.384Z,1.98
2023-05-11T19:45:51.777Z,1.52
2023-05-11T19:48:19.183Z,1.50
2023-05-11T19:50:47.035Z,1.60
2023-05-11T19:53:14.363Z,1.85
2023-05-11T19:55:41.757Z,0.77
2023-05-11T19:58:09.386Z,1.92
2023-05-11T20:00:37.050Z,1.77
2023-05-11T20:03:04.595Z,1.92
2023-05-11T20:05:32.067Z,4.13
2023-05-11T20:07:59.774Z,1.70
2023-05-11T20:10:27.593Z,2.88
2023-05-11T20:12:55.248Z,2.72
2023-05-11T20:15:22.618Z,2.42
2023-05-11T20:17:50.276Z,2.58
2023-05-11T20:20:17.998Z,1.88
2023-05-11T20:22:45.489Z,2.60
2023-05-11T20:25:18.506Z,2.53
2023-05-11T20:27:46.926Z,2.25
2023-05-11T20:30:15.286Z,2.55
2023-05-11T20:34:06.911Z,1.45
2023-05-11T20:35:31.103Z,2.45
2023-05-11T20:37:58.464Z,2.22
2023-05-11T20:40:25.922Z,1.30
2023-05-11T20:42:53.356Z,1.02
2023-05-11T20:45:20.790Z,1.75
2023-05-11T20:47:48.138Z,1.38
2023-05-11T20:50:15.674Z,3.00
2023-05-11T20:52:43.048Z,1.40
2023-05-11T20:55:11.127Z,2.90
2023-05-11T20:57:38.537Z,2.35
2023-05-11T21:00:11.037Z,3.47
2023-05-11T21:02:38.419Z,2.63
2023-05-11T21:05:06.357Z,1.88
2023-05-11T21:07:33.690Z,3.13
2023-05-11T21:10:01.788Z,2.97
2023-05-11T21:12:29.206Z,1.20
2023-05-11T21:14:57.116Z,1.45
2023-05-11T21:17:24.705Z,3.47
2023-05-11T21:19:52.199Z,1.38
2023-05-11T21:22:19.501Z,1.85
2023-05-11T21:24:46.829Z,1.45
2023-05-11T21:27:15.048Z,3.00
2023-05-11T21:29:42.598Z,2.17
2023-05-11T21:32:10.237Z,3.47
2023-05-11T21:34:38.398Z,3.67
2023-05-11T21:37:05.772Z,2.88
2023-05-11T21:39:33.024Z,2.63
2023-05-11T21:42:00.725Z,1.73
2023-05-11T21:44:28.205Z,3.33
2023-05-11T21:46:55.980Z,1.95
2023-05-11T21:49:23.418Z,4.47
2023-05-11T21:51:50.803Z,3.70
2023-05-11T21:54:22.175Z,2.38
2023-05-11T21:56:50.192Z,2.00
2023-05-11T21:59:18.609Z,2.67
2023-05-11T22:01:46.638Z,1.38
2023-05-11T22:04:14.157Z,2.78
2023-05-11T22:06:41.586Z,2.67
2023-05-11T22:09:08.898Z,3.10
2023-05-11T22:11:39.389Z,3.13
2023-05-11T22:14:06.831Z,2.55
2023-05-11T22:16:34.213Z,1.80
2023-05-11T22:19:01.597Z,2.53
2023-05-11T22:21:29.195Z,3.53
2023-05-11T22:23:56.544Z,3.58
2023-05-11T22:26:23.902Z,2.95
2023-05-11T22:28:51.267Z,2.40
2023-05-11T22:31:18.955Z,2.38
2023-05-11T22:33:46.240Z,3.75
2023-05-11T22:36:13.555Z,2.35
2023-05-11T22:38:41.033Z,3.42
2023-05-11T22:41:08.347Z,2.40
2023-05-11T22:43:36.096Z,3.50
2023-05-11T22:46:04.882Z,2.13
2023-05-11T22:48:32.378Z,1.60
2023-05-11T22:50:59.715Z,1.75
2023-05-11T22:53:27.020Z,2.42
2023-05-11T22:55:54.380Z,2.72
2023-05-11T22:58:22.659Z,2.80
2023-05-11T23:00:54.642Z,3.75
2023-05-11T23:03:22.499Z,3.00
2023-05-11T23:05:49.939Z,3.08
2023-05-11T23:08:17.238Z,1.55
2023-05-11T23:10:44.592Z,2.85
2023-05-11T23:13:11.948Z,3.20
2023-05-11T23:15:39.266Z,3.42
2023-05-11T23:18:06.757Z,3.75
2023-05-11T23:20:34.225Z,2.38
2023-05-11T23:23:01.548Z,3.15
2023-05-11T23:25:29.007Z,2.10
2023-05-11T23:27:56.548Z,3.15
2023-05-11T23:30:23.995Z,2.22
2023-05-11T23:32:51.331Z,3.92
2023-05-11T23:35:18.781Z,2.80
2023-05-11T23:37:46.425Z,2.13
2023-05-11T23:40:13.827Z,1.67
2023-05-11T23:42:41.121Z,3.03
2023-05-11T23:45:08.893Z,2.85
2023-05-11T23:47:36.787Z,2.58
2023-05-11T23:50:04.455Z,2.55
2023-05-11T23:52:31.772Z,3.80
2023-05-11T23:54:59.068Z,3.22
2023-05-11T23:57:26.374Z,1.83
2023-05-11T23:59:53.869Z,2.75
